Time;durP1;ratioP1;P1;durP2;ratioP2;P2;SDS_P1;SDS_P2;PMS_P1;PMS_P2;Temp;Humidity;BMP_temperature;BMP_pressure;BME280_temperature;BME280_humidity;BME280_pressure;Samples;Min_cycle;Max_cycle;Signal;HPM_P1;HPM_P2
2021/01/30 00:02:24;;;;;;;5.67;4.17;;;-0.30;33.70;;;;;;5116036;28;20732;-60
2021/01/30 00:04:50;;;;;;;10.87;6.73;;;-0.30;36.40;;;;;;5116800;28;20186;-63
2021/01/30 00:07:16;;;;;;;11.07;7.33;;;-0.30;38.70;;;;;;5117013;28;20183;-63
2021/01/30 00:09:42;;;;;;;10.65;6.80;;;0.00;42.50;;;;;;5116970;28;20209;-60
2021/01/30 00:12:09;;;;;;;8.53;5.60;;;-0.10;33.00;;;;;;5116727;28;20187;-59
2021/01/30 00:14:36;;;;;;;9.77;6.47;;;-0.10;29.60;;;;;;5116241;28;20756;-60
2021/01/30 00:17:04;;;;;;;10.48;6.57;;;-0.30;35.40;;;;;;5116699;28;20207;-60
2021/01/30 00:19:31;;;;;;;16.02;7.00;;;-0.30;47.60;;;;;;5116840;28;20311;-59
2021/01/30 00:22:03;;;;;;;12.25;7.75;;;-0.10;61.80;;;;;;5116859;28;20190;-59
2021/01/30 00:24:30;;;;;;;9.50;3.78;;;-0.10;72.60;;;;;;5116553;28;20181;-60
2021/01/30 00:26:59;;;;;;;11.90;8.38;;;-0.20;63.30;;;;;;5115868;28;20509;-60
2021/01/30 00:29:31;;;;;;;10.50;6.28;;;-0.20;66.80;;;;;;5116877;28;20471;-60
2021/01/30 00:31:57;;;;;;;13.32;8.00;;;0.00;71.30;;;;;;5116556;28;20193;-60
2021/01/30 00:34:25;;;;;;;12.73;7.40;;;-0.10;73.40;;;;;;5116234;28;20176;-62
2021/01/30 00:36:52;;;;;;;8.00;4.65;;;0.00;79.70;;;;;;5116339;28;20559;-63
2021/01/30 00:39:17;;;;;;;10.55;5.72;;;-0.10;84.60;;;;;;5116183;28;20175;-62
2021/01/30 00:41:44;;;;;;;12.30;5.93;;;-0.10;94.70;;;;;;5116386;28;20240;-62
2021/01/30 00:44:09;;;;;;;10.93;6.82;;;-0.10;99.90;;;;;;5116418;28;20278;-64
2021/01/30 00:46:35;;;;;;;10.87;5.40;;;-0.10;99.90;;;;;;5116316;28;20259;-62
2021/01/30 00:49:01;;;;;;;11.40;7.30;;;-0.10;99.90;;;;;;5116126;28;20559;-61
2021/01/30 00:51:27;;;;;;;12.07;7.00;;;0.00;99.90;;;;;;5098247;28;20336;-61
2021/01/30 00:53:52;;;;;;;13.40;7.37;;;0.10;99.90;;;;;;5114674;28;20724;-63
2021/01/30 00:56:18;;;;;;;11.87;8.10;;;0.10;99.90;;;;;;5116113;28;20879;-64
2021/01/30 00:58:44;;;;;;;5.33;4.23;;;0.00;99.90;;;;;;5098017;28;20630;-64
2021/01/30 01:01:10;;;;;;;12.57;7.90;;;0.00;99.90;;;;;;5116063;28;20176;-64
2021/01/30 01:03:35;;;;;;;12.77;7.97;;;0.00;99.90;;;;;;5115620;28;20502;-64
2021/01/30 01:06:02;;;;;;;11.57;7.53;;;0.10;99.90;;;;;;5115983;28;20188;-64
2021/01/30 01:08:28;;;;;;;11.07;6.68;;;0.20;99.90;;;;;;5116383;28;20627;-65
2021/01/30 01:10:54;;;;;;;11.70;6.35;;;0.20;99.90;;;;;;5115948;28;20183;-64
2021/01/30 01:13:19;;;;;;;10.63;7.43;;;0.00;99.90;;;;;;5116120;28;20171;-63
2021/01/30 01:15:46;;;;;;;11.50;7.10;;;0.10;99.90;;;;;;5115531;28;20171;-63
2021/01/30 01:18:12;;;;;;;11.18;7.07;;;0.10;99.90;;;;;;5115726;28;20267;-64
2021/01/30 01:20:38;;;;;;;13.90;7.80;;;0.20;99.90;;;;;;5114626;28;20244;-61
2021/01/30 01:23:03;;;;;;;8.27;6.10;;;0.30;99.90;;;;;;5114480;28;20179;-60
2021/01/30 01:25:29;;;;;;;14.33;8.20;;;0.40;99.90;;;;;;5115006;28;20176;-61
2021/01/30 01:27:55;;;;;;;11.13;7.17;;;0.30;99.90;;;;;;5115523;28;20448;-60
2021/01/30 01:30:22;;;;;;;12.27;7.30;;;0.20;99.90;;;;;;5115249;28;20187;-61
2021/01/30 01:32:48;;;;;;;11.13;6.72;;;0.20;99.90;;;;;;5115258;28;20190;-60
2021/01/30 01:35:21;;;;;;;12.32;7.78;;;0.30;99.90;;;;;;5115037;28;20171;-61
2021/01/30 01:37:47;;;;;;;12.88;6.75;;;0.40;99.90;;;;;;5114990;28;20352;-61
2021/01/30 01:40:15;;;;;;;11.55;6.63;;;0.40;99.90;;;;;;5114971;28;20177;-61
2021/01/30 01:42:41;;;;;;;10.25;7.05;;;0.30;99.90;;;;;;5114959;28;20605;-61
2021/01/30 01:45:07;;;;;;;10.98;7.75;;;0.40;99.90;;;;;;5114681;28;20180;-60
2021/01/30 01:47:46;;;;;;;13.15;8.10;;;0.30;99.90;;;;;;5114792;28;20579;-61
2021/01/30 01:50:29;;;;;;;8.18;5.60;;;0.30;99.90;;;;;;5114822;28;20179;-60
2021/01/30 01:53:04;;;;;;;9.07;6.05;;;0.30;99.90;;;;;;5113738;28;20274;-61
2021/01/30 01:55:30;;;;;;;12.25;7.20;;;0.40;99.90;;;;;;5114700;28;20167;-61
2021/01/30 01:57:59;;;;;;;9.13;5.80;;;0.30;99.90;;;;;;5114580;28;20207;-60
2021/01/30 02:00:25;;;;;;;8.85;6.82;;;0.40;99.90;;;;;;5114597;28;20445;-60
2021/01/30 02:02:53;;;;;;;12.03;7.47;;;0.50;99.90;;;;;;5114424;28;20580;-61
2021/01/30 02:05:24;;;;;;;12.57;7.40;;;0.50;99.90;;;;;;5114496;28;20514;-61
2021/01/30 02:07:50;;;;;;;11.55;7.63;;;0.50;99.90;;;;;;5114530;28;20552;-61
2021/01/30 02:10:20;;;;;;;10.45;6.97;;;0.60;99.90;;;;;;5114590;28;20201;-61
2021/01/30 02:12:47;;;;;;;11.23;6.65;;;0.50;99.90;;;;;;5113467;28;20223;-61
2021/01/30 02:15:14;;;;;;;10.55;6.57;;;0.50;99.90;;;;;;5114697;28;20616;-61
2021/01/30 02:18:07;;;;;;;13.40;6.55;;;0.40;99.90;;;;;;5114460;28;20207;-60
2021/01/30 02:21:09;;;;;;;8.45;5.03;;;0.40;99.90;;;;;;5114614;28;20172;-61
2021/01/30 02:24:05;;;;;;;11.70;7.38;;;0.40;99.90;;;;;;5113844;28;20680;-60
2021/01/30 02:26:59;;;;;;;11.00;7.05;;;0.70;99.90;;;;;;5114301;28;20200;-60
2021/01/30 02:29:49;;;;;;;10.13;7.40;;;0.50;99.90;;;;;;5114189;28;20235;-60
2021/01/30 02:32:30;;;;;;;11.68;8.10;;;0.50;99.90;;;;;;5114286;28;20190;-60
2021/01/30 02:35:04;;;;;;;11.63;7.57;;;0.50;99.90;;;;;;5113923;28;20619;-60
2021/01/30 02:37:38;;;;;;;11.68;7.72;;;0.50;99.90;;;;;;5113219;28;20210;-60
2021/01/30 02:40:17;;;;;;;11.38;7.50;;;0.60;99.90;;;;;;5113042;28;20267;-60
2021/01/30 02:42:56;;;;;;;11.27;7.35;;;0.50;99.90;;;;;;5114080;28;20205;-60
2021/01/30 02:45:25;;;;;;;9.43;6.22;;;0.60;99.90;;;;;;5113839;28;20187;-61
2021/01/30 02:48:03;;;;;;;6.50;4.78;;;0.60;99.90;;;;;;5113242;28;20800;-60
2021/01/30 02:50:34;;;;;;;11.80;8.20;;;0.60;99.90;;;;;;5113945;28;20179;-60
2021/01/30 02:53:03;;;;;;;10.07;7.00;;;0.60;99.90;;;;;;5113940;28;20190;-60
2021/01/30 02:55:32;;;;;;;12.98;8.38;;;0.60;99.90;;;;;;5113823;28;20193;-60
2021/01/30 02:57:59;;;;;;;15.70;7.18;;;0.70;99.90;;;;;;5113935;28;20225;-60
2021/01/30 03:00:26;;;;;;;10.15;6.07;;;0.60;99.90;;;;;;5113930;28;20190;-60
2021/01/30 03:02:52;;;;;;;14.68;9.15;;;0.50;99.90;;;;;;5113707;28;20281;-60
2021/01/30 03:05:19;;;;;;;12.55;8.02;;;0.60;99.90;;;;;;5112530;28;20627;-60
2021/01/30 03:08:16;;;;;;;11.15;7.22;;;0.60;99.90;;;;;;5113803;28;20183;-60
2021/01/30 03:11:07;;;;;;;12.85;7.75;;;0.60;99.90;;;;;;5113935;28;20508;-60
2021/01/30 03:13:41;;;;;;;11.60;7.70;;;0.60;99.90;;;;;;5112402;28;20179;-60
2021/01/30 03:16:14;;;;;;;10.45;7.15;;;0.60;99.90;;;;;;5113818;28;20174;-60
2021/01/30 03:18:51;;;;;;;8.75;6.45;;;0.60;99.90;;;;;;5113941;28;20221;-60
2021/01/30 03:21:18;;;;;;;13.38;8.73;;;0.70;99.90;;;;;;5113553;28;20183;-60
2021/01/30 03:23:43;;;;;;;13.93;8.88;;;0.70;99.90;;;;;;5113365;28;20183;-60
2021/01/30 03:26:15;;;;;;;16.17;8.67;;;0.70;99.90;;;;;;5113483;28;20179;-60
2021/01/30 03:28:41;;;;;;;10.73;7.13;;;0.80;99.90;;;;;;5113803;28;20492;-60
2021/01/30 03:31:06;;;;;;;13.40;7.80;;;0.70;99.90;;;;;;5113552;28;20186;-60
2021/01/30 03:33:32;;;;;;;11.90;7.90;;;0.60;99.90;;;;;;5113264;28;20191;-60
2021/01/30 03:35:58;;;;;;;11.27;7.87;;;0.70;99.90;;;;;;5113419;28;20194;-60
2021/01/30 03:38:24;;;;;;;14.10;9.00;;;0.70;99.90;;;;;;5112439;28;20252;-60
2021/01/30 03:40:49;;;;;;;11.33;8.10;;;0.70;99.90;;;;;;5113490;28;20490;-60
2021/01/30 03:43:15;;;;;;;13.43;8.17;;;0.70;99.90;;;;;;5113427;28;20636;-60
2021/01/30 03:45:41;;;;;;;16.92;10.63;;;0.70;99.90;;;;;;5113589;28;20187;-60
2021/01/30 03:48:07;;;;;;;12.60;8.10;;;0.70;99.90;;;;;;5114705;28;20662;-60
2021/01/30 03:50:33;;;;;;;16.95;9.10;;;0.70;99.90;;;;;;5117134;28;20182;-60
2021/01/30 03:53:01;;;;;;;11.32;6.07;;;0.90;99.90;;;;;;5117004;28;20190;-60
2021/01/30 03:55:26;;;;;;;11.65;6.95;;;0.70;70.20;;;;;;5116796;28;20631;-60
2021/01/30 03:57:52;;;;;;;14.90;8.50;;;0.80;69.00;;;;;;5116990;28;20207;-60
2021/01/30 04:00:21;;;;;;;13.83;9.30;;;0.60;23.00;;;;;;5117113;28;20182;-60
2021/01/30 04:02:47;;;;;;;11.27;7.43;;;0.70;15.10;;;;;;5116859;28;20213;-60
2021/01/30 04:05:17;;;;;;;12.02;7.45;;;0.60;1.00;;;;;;5116820;28;20171;-60
2021/01/30 04:07:43;;;;;;;11.48;6.95;;;0.60;1.00;;;;;;5116946;28;20679;-60
2021/01/30 04:10:11;;;;;;;13.83;8.40;;;0.50;1.00;;;;;;5116871;28;20215;-60
2021/01/30 04:12:38;;;;;;;11.65;6.68;;;0.70;1.00;;;;;;5116733;28;20444;-60
2021/01/30 04:15:05;;;;;;;14.40;8.35;;;0.60;1.00;;;;;;5116480;28;20627;-60
2021/01/30 04:17:31;;;;;;;13.07;8.68;;;0.70;1.00;;;;;;5116566;28;20219;-60
2021/01/30 04:19:56;;;;;;;11.07;7.37;;;0.70;1.00;;;;;;5116691;28;20189;-60
2021/01/30 04:22:22;;;;;;;11.23;6.93;;;0.70;1.00;;;;;;5116717;28;20181;-60
2021/01/30 04:24:47;;;;;;;14.50;8.70;;;0.80;1.00;;;;;;5116374;28;20172;-60
2021/01/30 04:27:14;;;;;;;11.13;7.70;;;0.80;1.00;;;;;;5114598;28;20687;-60
2021/01/30 04:29:41;;;;;;;14.55;9.38;;;0.80;1.00;;;;;;5116658;28;20191;-60
2021/01/30 04:32:08;;;;;;;13.02;7.15;;;0.80;1.00;;;;;;5116809;28;20228;-60
2021/01/30 04:34:33;;;;;;;9.80;6.10;;;1.10;1.00;;;;;;5115446;28;20569;-60
2021/01/30 04:36:59;;;;;;;11.77;9.20;;;0.90;1.00;;;;;;5115367;28;20207;-60
2021/01/30 04:39:24;;;;;;;13.53;8.70;;;0.70;1.00;;;;;;5116358;28;20395;-60
2021/01/30 04:42:13;;;;;;;15.03;9.07;;;0.80;1.00;;;;;;5116341;28;20502;-60
2021/01/30 04:45:19;;;;;;;17.65;9.68;;;0.70;1.00;;;;;;5116091;28;20210;-60
2021/01/30 04:47:52;;;;;;;14.00;8.65;;;0.60;1.00;;;;;;5116268;28;20194;-60
2021/01/30 04:50:35;;;;;;;15.10;9.15;;;0.60;1.00;;;;;;5116224;28;20184;-60
2021/01/30 04:53:06;;;;;;;12.10;7.63;;;0.60;1.00;;;;;;5114918;28;20539;-60
2021/01/30 04:55:35;;;;;;;13.48;8.95;;;0.70;1.00;;;;;;5116030;28;20211;-60
2021/01/30 04:58:12;;;;;;;14.23;9.00;;;0.70;1.00;;;;;;5115961;28;20287;-60
2021/01/30 05:00:46;;;;;;;13.45;7.53;;;0.70;1.00;;;;;;5114966;28;20257;-60
2021/01/30 05:03:42;;;;;;;12.43;8.18;;;0.50;1.00;;;;;;5115504;28;20347;-60
2021/01/30 05:06:14;;;;;;;15.85;9.15;;;0.50;1.00;;;;;;5115066;28;20660;-60
2021/01/30 05:09:01;;;;;;;14.13;9.25;;;0.60;1.00;;;;;;5115916;28;20176;-60
2021/01/30 05:11:29;;;;;;;19.15;10.18;;;0.40;1.00;;;;;;5115596;28;20178;-60
2021/01/30 05:14:30;;;;;;;16.98;9.93;;;0.40;1.00;;;;;;5115342;28;20257;-60
2021/01/30 05:17:10;;;;;;;17.20;9.73;;;0.60;1.00;;;;;;5072908;28;20711;-60
2021/01/30 05:19:46;;;;;;;16.13;10.85;;;0.50;1.00;;;;;;5110777;28;20635;-60
2021/01/30 05:22:14;;;;;;;13.88;9.50;;;0.60;1.00;;;;;;5115444;28;20270;-60
2021/01/30 05:24:44;;;;;;;14.70;9.43;;;0.70;1.00;;;;;;5115159;28;20216;-60
2021/01/30 05:27:41;;;;;;;17.83;11.05;;;0.70;1.00;;;;;;5115717;28;20167;-60
2021/01/30 05:30:34;;;;;;;19.48;10.32;;;0.50;1.00;;;;;;5115660;28;20175;-60
2021/01/30 05:33:06;;;;;;;16.92;10.60;;;0.60;1.00;;;;;;5116804;28;20512;-61
2021/01/30 05:35:46;;;;;;;18.77;10.80;;;0.50;1.00;;;;;;5117943;28;20187;-61
2021/01/30 05:38:22;;;;;;;16.40;9.68;;;0.50;1.00;;;;;;5117486;28;20219;-60
2021/01/30 05:40:56;;;;;;;18.65;9.98;;;0.30;1.00;;;;;;5117310;28;20171;-61
2021/01/30 05:43:42;;;;;;;19.70;11.35;;;0.40;1.00;;;;;;5116982;28;20178;-61
2021/01/30 05:46:14;;;;;;;18.20;10.25;;;0.60;1.00;;;;;;5117336;28;20238;-61
2021/01/30 05:48:46;;;;;;;20.00;11.20;;;0.40;1.00;;;;;;5117449;28;20675;-62
2021/01/30 05:51:19;;;;;;;19.55;10.32;;;0.50;1.00;;;;;;5117712;28;20194;-63
2021/01/30 05:53:45;;;;;;;19.60;12.45;;;0.70;1.00;;;;;;5116085;28;20640;-63
2021/01/30 05:56:11;;;;;;;18.02;9.80;;;0.60;1.00;;;;;;5115852;28;20356;-64
2021/01/30 05:58:41;;;;;;;21.80;11.60;;;0.30;1.00;;;;;;5115079;28;20644;-63
2021/01/30 06:01:15;;;;;;;19.73;10.60;;;0.30;1.00;;;;;;5114786;28;20421;-62
2021/01/30 06:03:56;;;;;;;21.67;10.88;;;0.30;1.00;;;;;;5113456;28;20191;-62
2021/01/30 06:06:22;;;;;;;14.35;9.27;;;0.30;1.00;;;;;;5114812;28;20179;-62
2021/01/30 06:09:04;;;;;;;20.10;11.70;;;0.30;1.00;;;;;;5114674;28;20696;-64
2021/01/30 06:11:47;;;;;;;15.13;10.45;;;0.20;1.00;;;;;;5113602;28;20194;-64
2021/01/30 06:14:33;;;;;;;12.05;7.53;;;0.20;1.80;;;;;;5114821;28;20182;-62
2021/01/30 06:16:59;;;;;;;19.27;11.63;;;0.20;1.00;;;;;;5114469;28;20195;-62
2021/01/30 06:19:29;;;;;;;19.85;9.40;;;0.20;12.80;;;;;;5114770;28;20180;-62
2021/01/30 06:22:27;;;;;;;17.60;10.52;;;0.00;14.00;;;;;;5114423;28;20504;-62
2021/01/30 06:24:52;;;;;;;19.75;9.98;;;0.00;40.00;;;;;;5080194;28;20265;-62
2021/01/30 06:27:26;;;;;;;18.10;10.93;;;0.20;44.90;;;;;;5119883;28;20203;-62
2021/01/30 06:29:59;;;;;;;19.88;11.00;;;0.30;41.50;;;;;;5119117;28;20266;-63
2021/01/30 06:32:38;;;;;;;20.17;11.18;;;0.40;31.70;;;;;;5114732;28;20183;-63
2021/01/30 06:35:13;;;;;;;18.65;11.80;;;0.30;19.20;;;;;;5113101;28;20186;-62
2021/01/30 06:37:48;;;;;;;16.48;9.73;;;0.20;8.90;;;;;;5114191;28;20206;-63
2021/01/30 06:40:24;;;;;;;18.30;9.63;;;0.40;7.40;;;;;;5114623;28;20316;-62
2021/01/30 06:42:53;;;;;;;13.38;8.48;;;0.60;5.10;;;;;;5114917;28;20257;-61
2021/01/30 06:45:40;;;;;;;19.75;10.80;;;0.30;1.00;;;;;;5114227;28;20237;-62
2021/01/30 06:48:08;;;;;;;17.70;8.90;;;0.20;1.00;;;;;;5114238;28;20250;-64
2021/01/30 06:50:42;;;;;;;18.38;10.32;;;0.00;1.00;;;;;;5114224;28;20176;-61
2021/01/30 06:53:16;;;;;;;16.30;9.38;;;0.00;1.00;;;;;;5114024;28;20189;-64
2021/01/30 06:55:41;;;;;;;15.25;9.82;;;0.30;1.00;;;;;;5114059;28;20187;-62
2021/01/30 06:58:11;;;;;;;19.30;11.63;;;0.20;1.00;;;;;;5114553;28;20252;-61
2021/01/30 07:00:38;;;;;;;18.23;10.65;;;0.00;1.00;;;;;;5114419;28;20207;-65
2021/01/30 07:03:10;;;;;;;16.73;10.27;;;0.30;1.00;;;;;;5114006;28;20195;-63
2021/01/30 07:06:16;;;;;;;16.70;9.93;;;0.60;1.00;;;;;;5114063;28;20480;-63
2021/01/30 07:08:58;;;;;;;16.60;9.98;;;0.80;1.00;;;;;;5107975;28;20227;-61
2021/01/30 07:11:31;;;;;;;17.48;10.30;;;0.90;1.00;;;;;;5113896;28;20217;-61
2021/01/30 07:14:22;;;;;;;16.08;10.85;;;0.80;1.00;;;;;;5113594;28;20240;-61
2021/01/30 07:17:17;;;;;;;15.65;9.05;;;0.60;1.00;;;;;;5113651;28;20742;-62
2021/01/30 07:20:09;;;;;;;19.38;9.73;;;0.50;1.00;;;;;;5104322;28;20200;-62
2021/01/30 07:23:26;;;;;;;21.38;9.80;;;0.50;1.00;;;;;;5113731;28;20180;-62
2021/01/30 07:26:07;;;;;;;16.60;9.50;;;0.40;1.00;;;;;;5058841;28;20210;-62
2021/01/30 07:28:42;;;;;;;18.23;9.95;;;0.70;1.00;;;;;;5117542;28;20220;-61
2021/01/30 07:31:29;;;;;;;15.52;8.68;;;1.10;1.00;;;;;;5117340;28;20186;-61
2021/01/30 07:34:01;;;;;;;15.85;9.65;;;0.80;1.00;;;;;;5117470;28;20171;-62
2021/01/30 07:37:02;;;;;;;17.95;10.10;;;0.80;1.00;;;;;;5117722;28;20207;-62
2021/01/30 07:39:44;;;;;;;16.65;9.88;;;0.70;1.00;;;;;;5117320;28;20250;-65
2021/01/30 07:42:39;;;;;;;15.88;9.85;;;1.00;1.00;;;;;;5117392;28;20171;-65
2021/01/30 07:45:24;;;;;;;15.27;9.60;;;1.10;1.00;;;;;;5117068;28;20167;-65
2021/01/30 07:48:03;;;;;;;13.48;9.18;;;1.40;1.00;;;;;;5117436;28;20186;-67
2021/01/30 07:50:35;;;;;;;18.10;10.82;;;1.10;99.90;;;;;;5117622;28;20320;-66
2021/01/30 07:53:17;;;;;;;19.00;10.90;;;1.20;99.90;;;;;;5117228;28;20202;-66
2021/01/30 07:56:07;;;;;;;16.20;9.15;;;1.40;99.90;;;;;;5117064;28;20616;-63
2021/01/30 07:59:10;;;;;;;17.20;10.13;;;1.80;99.90;;;;;;5117090;28;20201;-65
2021/01/30 08:01:39;;;;;;;17.08;9.60;;;1.80;1.00;;;;;;5117048;28;20189;-66
2021/01/30 08:04:04;;;;;;;20.13;10.05;;;1.80;1.00;;;;;;5116711;28;20619;-66
2021/01/30 08:06:38;;;;;;;17.63;9.53;;;1.90;99.90;;;;;;5116931;28;20266;-66
2021/01/30 08:09:22;;;;;;;13.55;8.90;;;1.40;99.90;;;;;;5115870;28;20182;-66
2021/01/30 08:12:12;;;;;;;16.35;8.75;;;1.20;99.90;;;;;;5116962;28;20611;-67
2021/01/30 08:15:06;;;;;;;14.63;9.50;;;1.00;1.00;;;;;;5116669;28;20274;-66
2021/01/30 08:18:23;;;;;;;20.85;10.68;;;1.00;1.00;;;;;;5116449;28;20203;-66
2021/01/30 08:20:49;;;;;;;12.80;7.95;;;0.80;1.00;;;;;;5052944;28;20221;-66
2021/01/30 08:23:45;;;;;;;18.20;11.77;;;0.70;1.00;;;;;;5054155;28;20173;-64
2021/01/30 08:26:21;;;;;;;13.55;8.32;;;0.80;99.90;;;;;;5102528;28;20265;-66
2021/01/30 08:29:11;;;;;;;43.78;22.85;;;0.70;36.00;;;;;;5117138;28;20239;-65
2021/01/30 08:32:00;;;;;;;11.50;7.47;;;0.70;99.90;;;;;;5116893;28;20171;-64
2021/01/30 08:34:29;;;;;;;15.13;9.27;;;0.80;58.80;;;;;;5116891;28;20600;-64
2021/01/30 08:36:58;;;;;;;14.63;8.95;;;0.50;99.90;;;;;;5116498;28;20199;-66
2021/01/30 08:39:30;;;;;;;13.98;9.02;;;0.80;99.90;;;;;;5114989;28;20184;-66
2021/01/30 08:42:03;;;;;;;12.35;7.93;;;0.90;2.50;;;;;;5115233;28;20179;-67
2021/01/30 08:44:50;;;;;;;17.67;9.77;;;1.00;1.00;;;;;;5116137;28;20202;-67
2021/01/30 08:47:20;;;;;;;15.15;10.10;;;0.70;1.00;;;;;;5115369;28;20269;-64
2021/01/30 08:50:28;;;;;;;14.93;7.95;;;0.90;1.00;;;;;;5115827;28;20179;-65
2021/01/30 08:53:09;;;;;;;9.43;6.80;;;0.90;1.00;;;;;;5102263;27;20191;-65
2021/01/30 08:55:44;;;;;;;14.70;8.98;;;0.80;1.00;;;;;;5115669;28;20254;-65
2021/01/30 08:58:37;;;;;;;13.30;8.60;;;0.80;1.00;;;;;;5095603;28;20202;-65
2021/01/30 09:01:11;;;;;;;12.88;8.70;;;0.80;1.00;;;;;;5095201;28;20184;-65
2021/01/30 09:03:51;;;;;;;16.48;8.15;;;0.60;1.00;;;;;;5094113;28;20198;-65
2021/01/30 09:06:38;;;;;;;12.73;7.60;;;0.40;1.00;;;;;;5095228;28;20182;-64
2021/01/30 09:09:15;;;;;;;14.07;7.80;;;0.30;8.50;;;;;;5095143;28;20180;-65
2021/01/30 09:11:53;;;;;;;15.55;9.07;;;0.40;51.80;;;;;;5095013;28;20259;-68
2021/01/30 09:14:18;;;;;;;12.80;8.85;;;0.60;14.90;;;;;;5107703;28;20179;-68
2021/01/30 09:17:05;;;;;;;14.07;7.70;;;0.50;1.00;;;;;;5115120;28;20217;-68
2021/01/30 09:19:54;;;;;;;11.60;7.70;;;0.40;1.00;;;;;;5115136;28;20175;-68
2021/01/30 09:22:35;;;;;;;12.85;8.20;;;0.50;1.00;;;;;;5115301;28;20254;-66
2021/01/30 09:25:09;;;;;;;13.43;8.20;;;0.60;1.00;;;;;;5114853;28;20494;-68
2021/01/30 09:27:57;;;;;;;12.50;8.68;;;0.60;1.00;;;;;;5115178;28;20167;-65
2021/01/30 09:30:38;;;;;;;14.43;9.07;;;0.50;1.00;;;;;;5115415;28;20173;-64
2021/01/30 09:33:29;;;;;;;13.68;8.25;;;0.60;1.00;;;;;;5113949;28;20193;-67
2021/01/30 09:36:13;;;;;;;14.65;8.52;;;0.90;1.00;;;;;;5115121;28;20187;-66
2021/01/30 09:38:50;;;;;;;13.48;8.15;;;0.90;99.90;;;;;;5114852;28;20630;-63
2021/01/30 09:41:19;;;;;;;10.48;7.05;;;0.70;99.90;;;;;;5113854;28;20185;-64
2021/01/30 09:43:44;;;;;;;12.25;8.00;;;0.70;99.90;;;;;;5114455;28;20171;-64
2021/01/30 09:46:15;;;;;;;14.27;9.70;;;0.90;99.90;;;;;;5113459;28;20180;-67
2021/01/30 09:48:42;;;;;;;17.80;8.90;;;0.60;99.90;;;;;;5114838;28;20190;-68
2021/01/30 09:51:10;;;;;;;18.98;8.57;;;0.70;99.90;;;;;;5114833;28;20207;-64
2021/01/30 09:53:47;;;;;;;16.20;9.20;;;0.90;99.90;;;;;;5114760;28;20558;-63
2021/01/30 09:56:15;;;;;;;17.42;9.93;;;0.90;99.90;;;;;;5114599;28;20175;-65
2021/01/30 09:58:44;;;;;;;11.52;8.90;;;1.10;1.00;;;;;;5114643;28;20174;-66
2021/01/30 10:01:22;;;;;;;19.40;9.05;;;1.10;1.00;;;;;;5114585;28;20171;-65
2021/01/30 10:03:47;;;;;;;13.02;7.75;;;0.90;99.90;;;;;;5113963;28;20187;-66
2021/01/30 10:06:17;;;;;;;25.30;10.10;;;0.80;1.00;;;;;;5114791;28;20235;-67
2021/01/30 10:08:44;;;;;;;16.25;9.80;;;0.90;1.00;;;;;;5114705;28;20596;-66
2021/01/30 10:11:13;;;;;;;13.70;8.02;;;1.00;1.00;;;;;;5114509;28;20219;-65
2021/01/30 10:13:41;;;;;;;15.02;9.68;;;1.00;99.90;;;;;;5114169;28;20514;-65
2021/01/30 10:16:23;;;;;;;13.90;9.00;;;0.90;1.00;;;;;;5113962;28;20530;-64
2021/01/30 10:18:55;;;;;;;13.27;8.38;;;0.90;1.00;;;;;;5114389;28;20163;-66
2021/01/30 10:21:34;;;;;;;14.27;8.57;;;1.00;1.00;;;;;;5114611;28;20176;-65
2021/01/30 10:24:10;;;;;;;11.68;7.18;;;1.10;99.90;;;;;;5113961;28;20197;-63
2021/01/30 10:26:35;;;;;;;11.48;8.35;;;1.00;99.90;;;;;;5114235;28;20179;-66
2021/01/30 10:29:04;;;;;;;9.27;6.03;;;1.00;99.90;;;;;;5113313;28;20274;-64
2021/01/30 10:31:40;;;;;;;11.32;8.65;;;1.10;99.90;;;;;;5112716;28;20597;-68
2021/01/30 10:34:27;;;;;;;11.80;8.43;;;1.30;99.90;;;;;;5113911;28;20174;-64
2021/01/30 10:37:02;;;;;;;12.75;7.43;;;1.40;1.00;;;;;;5113759;28;20272;-63
2021/01/30 10:39:32;;;;;;;10.18;7.85;;;1.30;1.00;;;;;;5114200;28;20185;-61
2021/01/30 10:42:04;;;;;;;10.88;7.82;;;1.20;99.90;;;;;;5112771;28;20278;-64
2021/01/30 10:44:32;;;;;;;13.15;8.75;;;1.30;99.90;;;;;;5114274;28;20202;-65
2021/01/30 10:47:01;;;;;;;14.00;8.43;;;1.00;99.90;;;;;;5113578;28;20206;-65
2021/01/30 10:49:30;;;;;;;13.02;7.85;;;1.10;77.30;;;;;;5113032;28;20523;-66
2021/01/30 10:52:03;;;;;;;11.68;8.00;;;1.20;1.00;;;;;;5113850;28;20182;-63
2021/01/30 10:54:30;;;;;;;12.13;8.70;;;1.30;1.00;;;;;;5114009;28;20611;-67
2021/01/30 10:57:10;;;;;;;14.32;8.77;;;1.40;99.90;;;;;;5113552;28;20207;-67
2021/01/30 10:59:51;;;;;;;12.65;8.55;;;1.50;1.00;;;;;;5127326;27;20349;-65
2021/01/30 11:02:36;;;;;;;12.25;8.32;;;1.70;99.90;;;;;;5124013;27;20210;-66
2021/01/30 11:05:10;;;;;;;11.98;8.27;;;1.70;1.00;;;;;;5112264;27;20261;-65
2021/01/30 11:07:44;;;;;;;12.55;8.25;;;1.80;99.90;;;;;;5109448;28;20179;-69
2021/01/30 11:10:28;;;;;;;11.30;6.25;;;1.60;99.90;;;;;;5107848;28;20214;-67
2021/01/30 11:13:06;;;;;;;10.82;7.85;;;1.60;99.90;;;;;;5108961;27;20179;-64
2021/01/30 11:15:32;;;;;;;11.70;8.02;;;1.80;99.90;;;;;;5110029;27;20193;-66
2021/01/30 11:18:27;;;;;;;10.60;7.57;;;1.80;1.00;;;;;;5107991;27;20208;-65
2021/01/30 11:20:54;;;;;;;12.43;7.97;;;2.20;1.00;;;;;;5112394;27;20484;-66
2021/01/30 11:23:50;;;;;;;10.15;8.07;;;2.10;34.80;;;;;;5106946;27;20271;-65
2021/01/30 11:26:30;;;;;;;8.90;6.43;;;2.10;1.00;;;;;;5111526;27;20219;-66
2021/01/30 11:28:57;;;;;;;9.85;6.78;;;2.10;1.00;;;;;;5131653;27;20202;-65
2021/01/30 11:31:24;;;;;;;10.30;7.90;;;2.30;1.00;;;;;;5117572;28;20181;-63
2021/01/30 11:33:54;;;;;;;14.23;7.30;;;2.10;1.00;;;;;;5107867;28;20180;-64
2021/01/30 11:36:21;;;;;;;13.40;8.60;;;2.20;1.00;;;;;;5109079;27;20177;-65
2021/01/30 11:39:03;;;;;;;12.05;7.85;;;2.10;99.90;;;;;;5105653;28;20179;-69
2021/01/30 11:41:28;;;;;;;8.23;7.25;;;2.10;1.00;;;;;;5111578;28;20263;-66
2021/01/30 11:43:56;;;;;;;10.23;7.30;;;2.00;1.00;;;;;;5115304;28;20210;-66
2021/01/30 11:46:21;;;;;;;11.20;8.07;;;2.20;1.00;;;;;;5116386;28;20175;-67
2021/01/30 11:48:47;;;;;;;11.17;7.80;;;2.10;1.00;;;;;;5118057;28;20190;-68
2021/01/30 11:51:24;;;;;;;11.93;9.20;;;1.80;1.00;;;;;;5117333;28;20203;-65
2021/01/30 11:53:50;;;;;;;9.32;6.88;;;2.20;1.00;;;;;;5111586;28;20173;-65
2021/01/30 11:56:16;;;;;;;9.57;6.93;;;2.30;1.00;;;;;;5117589;28;20258;-67
2021/01/30 11:58:41;;;;;;;16.13;7.75;;;2.40;99.90;;;;;;5116293;28;20484;-67
2021/01/30 12:01:08;;;;;;;10.93;7.83;;;2.50;99.90;;;;;;5117209;28;20513;-67
2021/01/30 12:03:33;;;;;;;12.98;7.75;;;2.70;94.70;;;;;;5117297;28;20199;-67
2021/01/30 12:05:59;;;;;;;9.80;8.00;;;2.40;1.00;;;;;;5120361;27;20634;-67
2021/01/30 12:08:25;;;;;;;9.27;6.90;;;2.40;1.00;;;;;;5137929;27;20228;-67
2021/01/30 12:10:51;;;;;;;8.93;7.23;;;2.30;5.90;;;;;;5137810;27;20221;-66
2021/01/30 12:13:18;;;;;;;11.40;6.88;;;2.40;28.30;;;;;;5136556;27;20230;-67
2021/01/30 12:15:43;;;;;;;10.35;6.57;;;2.30;1.00;;;;;;5123733;27;20270;-66
2021/01/30 12:18:13;;;;;;;8.90;7.23;;;2.40;1.00;;;;;;5116845;28;20214;-68
2021/01/30 12:20:39;;;;;;;10.55;7.25;;;2.70;1.00;;;;;;5117377;28;20191;-67
2021/01/30 12:23:05;;;;;;;9.50;6.93;;;2.70;99.90;;;;;;5115798;28;20206;-67
2021/01/30 12:25:31;;;;;;;11.90;7.63;;;2.70;1.00;;;;;;5117072;28;20517;-67
2021/01/30 12:27:59;;;;;;;9.90;7.00;;;2.60;1.00;;;;;;5116784;28;20260;-66
2021/01/30 12:30:29;;;;;;;12.07;8.93;;;2.30;1.00;;;;;;5116741;28;20210;-67
2021/01/30 12:32:56;;;;;;;9.52;7.20;;;2.30;99.90;;;;;;5116900;28;20493;-67
2021/01/30 12:35:23;;;;;;;11.13;7.63;;;2.40;99.90;;;;;;5115867;28;20187;-66
2021/01/30 12:37:49;;;;;;;10.65;7.45;;;2.40;27.80;;;;;;5116397;28;20211;-67
2021/01/30 12:40:16;;;;;;;8.30;6.60;;;2.70;1.00;;;;;;5116627;28;20179;-67
2021/01/30 12:42:41;;;;;;;9.55;7.03;;;2.70;1.00;;;;;;5116638;28;20425;-67
2021/01/30 12:45:08;;;;;;;11.43;8.40;;;2.90;1.00;;;;;;5116349;28;20608;-68
2021/01/30 12:47:34;;;;;;;14.20;7.63;;;3.30;1.00;;;;;;5116549;28;20183;-67
2021/01/30 12:50:00;;;;;;;11.07;7.40;;;3.40;99.90;;;;;;5116394;28;20179;-64
2021/01/30 12:52:26;;;;;;;9.83;6.53;;;3.50;31.70;;;;;;5107551;28;20472;-63
2021/01/30 12:54:51;;;;;;;11.20;7.30;;;3.30;1.00;;;;;;5095601;28;20184;-63
2021/01/30 12:57:18;;;;;;;10.20;7.97;;;3.60;1.00;;;;;;5095717;28;20199;-63
2021/01/30 12:59:44;;;;;;;8.40;6.22;;;4.00;1.00;;;;;;5095574;28;20180;-62
2021/01/30 13:02:10;;;;;;;9.47;6.33;;;3.90;1.00;;;;;;5109332;28;20247;-66
2021/01/30 13:04:35;;;;;;;8.80;5.93;;;4.20;1.00;;;;;;5116093;28;20179;-66
2021/01/30 13:07:01;;;;;;;7.77;5.43;;;3.80;1.00;;;;;;5115961;28;20761;-66
2021/01/30 13:09:26;;;;;;;7.00;5.93;;;3.60;1.00;;;;;;5116002;28;20246;-66
2021/01/30 13:11:53;;;;;;;7.93;5.70;;;3.50;1.00;;;;;;5115922;28;20519;-67
2021/01/30 13:14:19;;;;;;;6.57;5.45;;;3.00;1.00;;;;;;5115902;28;20175;-63
2021/01/30 13:16:45;;;;;;;7.87;6.40;;;3.30;1.00;;;;;;5116708;28;20210;-64
2021/01/30 13:19:15;;;;;;;7.80;5.90;;;3.20;1.00;;;;;;5115559;28;20860;-63
2021/01/30 13:21:49;;;;;;;8.70;6.22;;;3.00;1.00;;;;;;5114560;28;20635;-63
2021/01/30 13:24:15;;;;;;;8.60;6.25;;;2.80;1.00;;;;;;5115722;28;20186;-63